Time,TemperatureF,DewpointF,PressureIn,WindDirection,WindDirectionDegrees,WindSpeedMPH,WindSpeedGustMPH,Humidity,HourlyPrecipIn,Conditions,Clouds,dailyrainin,SolarRadiationWatts/m^2,SoftwareType,DateUTC
2013-09-18 00:08:00,60.0,52.0,29.83,NNW,327,0.0,1.0,75,0.00,,,0.00,0,weatherlink.com 1.10,2013-09-18 07:08:00,
2013-09-18 00:23:00,59.1,52.0,29.84,NW,323,2.0,5.0,78,0.00,,,0.00,0,weatherlink.com 1.10,2013-09-18 07:23:00,
2013-09-18 00:38:00,59.8,53.0,29.84,NW,308,1.0,6.0,77,0.00,,,0.00,0,weatherlink.com 1.10,2013-09-18 07:38:00,
2013-09-18 00:53:00,60.0,53.0,29.84,NNW,335,2.0,3.0,77,0.00,,,0.00,0,weatherlink.com 1.10,2013-09-18 07:53:00,
2013-09-18 01:08:00,60.0,53.0,29.84,NW,310,2.0,6.0,77,0.00,,,0.00,0,weatherlink.com 1.10,2013-09-18 08:08:00,
2013-09-18 01:23:00,59.8,53.0,29.84,NNW,330,2.0,4.0,78,0.00,,,0.00,0,weatherlink.com 1.10,2013-09-18 08:23:00,
2013-09-18 01:38:00,59.5,53.0,29.84,NNW,335,2.0,4.0,79,0.00,,,0.00,0,weatherlink.com 1.10,2013-09-18 08:38:00,
2013-09-18 01:53:00,59.1,53.0,29.84,NW,315,1.0,4.0,79,0.00,,,0.00,0,weatherlink.com 1.10,2013-09-18 08:53:00,
2013-09-18 02:08:00,58.5,52.0,29.84,NNW,331,1.0,3.0,80,0.00,,,0.00,0,weatherlink.com 1.10,2013-09-18 09:08:00,
2013-09-18 02:23:00,58.0,53.0,29.84,NW,321,2.0,4.0,82,0.00,,,0.00,0,weatherlink.com 1.10,2013-09-18 09:23:00,
2013-09-18 02:38:00,57.8,52.0,29.83,WNW,300,3.0,6.0,82,0.00,,,0.00,0,weatherlink.com 1.10,2013-09-18 09:38:00,
2013-09-18 02:53:00,57.5,52.0,29.83,NW,315,3.0,5.0,81,0.00,,,0.00,0,weatherlink.com 1.10,2013-09-18 09:53:00,
2013-09-18 03:08:00,57.9,51.0,29.82,NW,311,0.0,4.0,77,0.00,,,0.00,0,weatherlink.com 1.10,2013-09-18 10:08:00,
2013-09-18 03:23:00,58.4,50.0,29.82,NNW,347,3.0,8.0,73,0.00,,,0.00,0,weatherlink.com 1.10,2013-09-18 10:23:00,
2013-09-18 03:38:00,58.7,49.0,29.82,NNW,336,2.0,6.0,71,0.00,,,0.00,0,weatherlink.com 1.10,2013-09-18 10:38:00,
2013-09-18 03:53:00,59.3,49.0,29.82,North,360,3.0,6.0,68,0.00,,,0.00,0,weatherlink.com 1.10,2013-09-18 10:53:00,
2013-09-18 04:09:00,59.8,49.0,29.82,North,349,1.0,8.0,67,0.00,,,0.00,0,weatherlink.com 1.10,2013-09-18 11:09:00,
2013-09-18 04:24:00,60.4,48.0,29.82,North,355,6.0,8.0,64,0.00,,,0.00,0,weatherlink.com 1.10,2013-09-18 11:24:00,
2013-09-18 04:39:00,61.0,48.0,29.82,NNW,342,1.0,7.0,62,0.00,,,0.00,0,weatherlink.com 1.10,2013-09-18 11:39:00,
2013-09-18 04:54:00,60.9,48.0,29.83,NW,311,1.0,8.0,62,0.00,,,0.00,0,weatherlink.com 1.10,2013-09-18 11:54:00,
2013-09-18 05:09:00,60.9,47.0,29.83,NW,308,3.0,7.0,60,0.00,,,0.00,0,weatherlink.com 1.10,2013-09-18 12:09:00,
2013-09-18 05:24:00,61.1,47.0,29.83,NNW,337,2.0,10.0,60,0.00,,,0.00,0,weatherlink.com 1.10,2013-09-18 12:24:00,
2013-09-18 05:39:00,61.7,47.0,29.84,WNW,286,5.0,9.0,58,0.00,,,0.00,0,weatherlink.com 1.10,2013-09-18 12:39:00,
2013-09-18 05:54:00,61.9,46.0,29.84,NW,323,2.0,8.0,57,0.00,,,0.00,0,weatherlink.com 1.10,2013-09-18 12:54:00,
2013-09-18 06:09:00,62.0,46.0,29.84,NNW,333,1.0,13.0,56,0.00,,,0.00,0,weatherlink.com 1.10,2013-09-18 13:09:00,
2013-09-18 06:24:00,62.0,45.0,29.85,NNW,341,2.0,8.0,55,0.00,,,0.00,0,weatherlink.com 1.10,2013-09-18 13:24:00,
2013-09-18 06:39:00,62.1,46.0,29.85,NNE,12,4.0,8.0,55,0.00,,,0.00,0,weatherlink.com 1.10,2013-09-18 13:39:00,
2013-09-18 06:54:00,62.2,46.0,29.85,ENE,75,2.0,8.0,55,0.00,,,0.00,12,weatherlink.com 1.10,2013-09-18 13:54:00,
2013-09-18 07:09:00,62.5,46.0,29.86,NNE,20,2.0,9.0,55,0.00,,,0.00,39,weatherlink.com 1.10,2013-09-18 14:09:00,
2013-09-18 07:24:00,63.3,46.0,29.86,NNE,17,2.0,14.0,54,0.00,,,0.00,51,weatherlink.com 1.10,2013-09-18 14:24:00,
2013-09-18 07:39:00,64.1,46.0,29.87,NNE,13,5.0,11.0,53,0.00,,,0.00,65,weatherlink.com 1.10,2013-09-18 14:39:00,
2013-09-18 07:54:00,64.0,46.0,29.87,NNE,30,6.0,11.0,53,0.00,,,0.00,42,weatherlink.com 1.10,2013-09-18 14:54:00,
2013-09-18 08:09:00,63.9,47.0,29.87,North,355,1.0,11.0,54,0.00,,,0.00,53,weatherlink.com 1.10,2013-09-18 15:09:00,
2013-09-18 08:24:00,63.4,46.0,29.87,North,355,2.0,11.0,54,0.00,,,0.00,44,weatherlink.com 1.10,2013-09-18 15:24:00,
2013-09-18 08:39:00,65.4,48.0,29.87,North,355,7.0,14.0,53,0.00,,,0.00,306,weatherlink.com 1.10,2013-09-18 15:39:00,
2013-09-18 08:54:00,67.4,48.0,29.88,North,9,2.0,16.0,51,0.00,,,0.00,348,weatherlink.com 1.10,2013-09-18 15:54:00,
2013-09-18 09:09:00,68.7,48.0,29.87,North,5,6.0,17.0,48,0.00,,,0.00,399,weatherlink.com 1.10,2013-09-18 16:09:00,
2013-09-18 09:24:00,69.7,48.0,29.88,North,355,13.0,18.0,46,0.00,,,0.00,441,weatherlink.com 1.10,2013-09-18 16:24:00,
2013-09-18 09:39:00,70.5,49.0,29.88,NNE,13,11.0,16.0,46,0.00,,,0.00,471,weatherlink.com 1.10,2013-09-18 16:39:00,
2013-09-18 09:54:00,71.6,49.0,29.88,NNE,12,8.0,14.0,45,0.00,,,0.00,527,weatherlink.com 1.10,2013-09-18 16:54:00,
2013-09-18 10:09:00,72.5,50.0,29.88,NNW,347,6.0,16.0,45,0.00,,,0.00,566,weatherlink.com 1.10,2013-09-18 17:09:00,
2013-09-18 10:26:00,73.4,49.0,29.88,NNE,13,9.0,17.0,42,0.00,,,0.00,603,weatherlink.com 1.10,2013-09-18 17:26:00,
2013-09-18 10:40:00,74.0,49.0,29.88,North,360,8.0,20.0,42,0.00,,,0.00,642,weatherlink.com 1.10,2013-09-18 17:40:00,
2013-09-18 10:55:00,74.9,51.0,29.88,North,5,9.0,14.0,44,0.00,,,0.00,670,weatherlink.com 1.10,2013-09-18 17:55:00,
2013-09-18 11:10:00,75.8,50.0,29.88,North,351,4.0,15.0,41,0.00,,,0.00,705,weatherlink.com 1.10,2013-09-18 18:10:00,
2013-09-18 11:25:00,76.8,52.0,29.87,NNE,30,5.0,15.0,42,0.00,,,0.00,724,weatherlink.com 1.10,2013-09-18 18:25:00,
2013-09-18 11:40:00,77.8,51.0,29.86,NNE,14,9.0,12.0,39,0.00,,,0.00,763,weatherlink.com 1.10,2013-09-18 18:40:00,
2013-09-18 11:55:00,79.0,52.0,29.85,NNE,20,10.0,14.0,39,0.00,,,0.00,765,weatherlink.com 1.10,2013-09-18 18:55:00,
2013-09-18 12:25:00,80.3,53.0,29.85,North,351,2.0,12.0,39,0.00,,,0.00,780,weatherlink.com 1.10,2013-09-18 19:25:00,
2013-09-18 12:40:00,81.9,52.0,29.85,North,351,5.0,10.0,36,0.00,,,0.00,789,weatherlink.com 1.10,2013-09-18 19:40:00,
2013-09-18 12:55:00,82.3,52.0,29.85,NNW,344,4.0,16.0,35,0.00,,,0.00,812,weatherlink.com 1.10,2013-09-18 19:55:00,
2013-09-18 13:25:00,82.8,51.0,29.83,NNE,29,1.0,13.0,33,0.00,,,0.00,817,weatherlink.com 1.10,2013-09-18 20:25:00,
2013-09-18 13:40:00,83.9,51.0,29.83,NNE,15,7.0,13.0,32,0.00,,,0.00,816,weatherlink.com 1.10,2013-09-18 20:40:00,
2013-09-18 13:55:00,84.2,50.0,29.82,NNE,15,3.0,14.0,31,0.00,,,0.00,803,weatherlink.com 1.10,2013-09-18 20:55:00,
2013-09-18 14:10:00,84.5,50.0,29.81,North,10,2.0,10.0,30,0.00,,,0.00,786,weatherlink.com 1.10,2013-09-18 21:10:00,
2013-09-18 14:25:00,84.9,49.0,29.80,NNW,346,6.0,12.0,29,0.00,,,0.00,773,weatherlink.com 1.10,2013-09-18 21:25:00,
2013-09-18 14:40:00,84.8,50.0,29.80,NNW,336,3.0,11.0,30,0.00,,,0.00,751,weatherlink.com 1.10,2013-09-18 21:40:00,
2013-09-18 14:55:00,85.4,50.0,29.80,North,360,3.0,13.0,29,0.00,,,0.00,724,weatherlink.com 1.10,2013-09-18 21:55:00,
2013-09-18 15:10:00,85.4,50.0,29.80,NNW,336,1.0,15.0,29,0.00,,,0.00,714,weatherlink.com 1.10,2013-09-18 22:10:00,
2013-09-18 15:25:00,85.8,46.0,29.79,NNE,23,4.0,14.0,25,0.00,,,0.00,680,weatherlink.com 1.10,2013-09-18 22:25:00,
2013-09-18 15:40:00,86.0,48.0,29.79,NW,323,1.0,11.0,27,0.00,,,0.00,633,weatherlink.com 1.10,2013-09-18 22:40:00,
2013-09-18 15:56:00,86.5,46.0,29.78,NW,315,3.0,10.0,24,0.00,,,0.00,599,weatherlink.com 1.10,2013-09-18 22:56:00,
2013-09-18 16:11:00,86.9,45.0,29.78,North,355,4.0,14.0,23,0.00,,,0.00,561,weatherlink.com 1.10,2013-09-18 23:11:00,
2013-09-18 16:26:00,87.4,45.0,29.77,NNW,344,5.0,8.0,23,0.00,,,0.00,519,weatherlink.com 1.10,2013-09-18 23:26:00,
2013-09-18 16:41:00,86.4,52.0,29.77,NNE,12,6.0,8.0,30,0.00,,,0.00,480,weatherlink.com 1.10,2013-09-18 23:41:00,
2013-09-18 16:56:00,85.2,50.0,29.77,North,355,3.0,9.0,29,0.00,,,0.00,413,weatherlink.com 1.10,2013-09-18 23:56:00,
2013-09-18 17:11:00,84.5,51.0,29.77,North,10,5.0,8.0,31,0.00,,,0.00,366,weatherlink.com 1.10,2013-09-19 00:11:00,
2013-09-18 17:26:00,83.9,52.0,29.77,NNW,342,0.0,8.0,33,0.00,,,0.00,195,weatherlink.com 1.10,2013-09-19 00:26:00,
2013-09-18 17:41:00,83.6,52.0,29.77,NW,313,1.0,7.0,33,0.00,,,0.00,213,weatherlink.com 1.10,2013-09-19 00:41:00,
2013-09-18 17:56:00,82.7,55.0,29.77,WNW,289,1.0,6.0,38,0.00,,,0.00,192,weatherlink.com 1.10,2013-09-19 00:56:00,
2013-09-18 18:11:00,80.8,53.0,29.77,WNW,299,3.0,8.0,38,0.00,,,0.00,176,weatherlink.com 1.10,2013-09-19 01:11:00,
2013-09-18 18:26:00,78.9,54.0,29.77,WNW,301,3.0,6.0,43,0.00,,,0.00,40,weatherlink.com 1.10,2013-09-19 01:26:00,
2013-09-18 18:41:00,77.0,56.0,29.77,WNW,293,3.0,4.0,48,0.00,,,0.00,19,weatherlink.com 1.10,2013-09-19 01:41:00,
2013-09-18 18:56:00,74.2,56.0,29.77,WNW,288,4.0,4.0,54,0.00,,,0.00,11,weatherlink.com 1.10,2013-09-19 01:56:00,
2013-09-18 19:11:00,71.9,54.0,29.78,WNW,288,0.0,4.0,54,0.00,,,0.00,5,weatherlink.com 1.10,2013-09-19 02:11:00,
2013-09-18 19:26:00,69.9,56.0,29.78,WNW,288,1.0,3.0,62,0.00,,,0.00,0,weatherlink.com 1.10,2013-09-19 02:26:00,
2013-09-18 19:41:00,67.8,52.0,29.78,WNW,288,3.0,3.0,57,0.00,,,0.00,0,weatherlink.com 1.10,2013-09-19 02:41:00,
2013-09-18 19:56:00,66.6,52.0,29.79,WNW,288,0.0,3.0,60,0.00,,,0.00,0,weatherlink.com 1.10,2013-09-19 02:56:00,
2013-09-18 20:11:00,66.0,51.0,29.79,WNW,288,1.0,6.0,59,0.00,,,0.00,0,weatherlink.com 1.10,2013-09-19 03:11:00,
2013-09-18 20:26:00,65.4,50.0,29.80,WNW,287,2.0,5.0,57,0.00,,,0.00,0,weatherlink.com 1.10,2013-09-19 03:26:00,
2013-09-18 20:41:00,65.4,50.0,29.80,WNW,287,1.0,4.0,58,0.00,,,0.00,0,weatherlink.com 1.10,2013-09-19 03:41:00,
2013-09-18 20:56:00,65.1,49.0,29.80,WNW,286,0.0,5.0,57,0.00,,,0.00,0,weatherlink.com 1.10,2013-09-19 03:56:00,
2013-09-18 21:11:00,64.7,49.0,29.80,WNW,286,0.0,4.0,57,0.00,,,0.00,0,weatherlink.com 1.10,2013-09-19 04:11:00,
2013-09-18 21:26:00,63.7,50.0,29.80,WNW,286,2.0,4.0,61,0.00,,,0.00,0,weatherlink.com 1.10,2013-09-19 04:26:00,
2013-09-18 21:41:00,62.8,50.0,29.80,WNW,286,2.0,4.0,64,0.00,,,0.00,0,weatherlink.com 1.10,2013-09-19 04:41:00,
2013-09-18 21:56:00,62.5,51.0,29.80,WNW,286,4.0,4.0,66,0.00,,,0.00,0,weatherlink.com 1.10,2013-09-19 04:56:00,
2013-09-18 22:11:00,61.5,50.0,29.80,WNW,286,2.0,3.0,66,0.00,,,0.00,0,weatherlink.com 1.10,2013-09-19 05:11:00,
2013-09-18 22:26:00,60.7,52.0,29.80,WNW,286,0.0,2.0,72,0.00,,,0.00,0,weatherlink.com 1.10,2013-09-19 05:26:00,
2013-09-18 22:41:00,59.4,52.0,29.80,WNW,286,0.0,0.0,76,0.00,,,0.00,0,weatherlink.com 1.10,2013-09-19 05:41:00,
2013-09-18 22:56:00,57.8,52.0,29.80,WNW,286,0.0,0.0,80,0.00,,,0.00,0,weatherlink.com 1.10,2013-09-19 05:56:00,
2013-09-18 23:11:00,56.7,51.0,29.80,WNW,286,0.0,0.0,82,0.00,,,0.00,0,weatherlink.com 1.10,2013-09-19 06:11:00,
2013-09-18 23:26:00,55.7,51.0,29.79,WNW,286,0.0,1.0,83,0.00,,,0.00,0,weatherlink.com 1.10,2013-09-19 06:26:00,
2013-09-18 23:41:00,54.8,50.0,29.79,WNW,286,0.0,0.0,85,0.00,,,0.00,0,weatherlink.com 1.10,2013-09-19 06:41:00,
2013-09-18 23:56:00,54.3,51.0,29.79,WNW,286,0.0,0.0,87,0.00,,,0.00,0,weatherlink.com 1.10,2013-09-19 06:56:00,